createdAt,value
2019-03-31T00:06:08.935Z,10.60
2019-03-31T00:36:12.871Z,10.70
2019-03-31T01:06:19.096Z,10.40
2019-03-31T01:36:24.784Z,9.90
2019-03-31T02:06:28.848Z,9.80
2019-03-31T02:36:32.708Z,9.60
2019-03-31T03:06:36.786Z,8.90
2019-03-31T03:36:43.376Z,8.30
2019-03-31T04:06:46.246Z,7.80
2019-03-31T04:36:50.208Z,8.00
2019-03-31T05:06:53.983Z,7.70
2019-03-31T05:36:57.828Z,7.70
2019-03-31T06:07:01.694Z,8.50
2019-03-31T06:37:05.478Z,9.30
2019-03-31T07:07:09.211Z,11.30
2019-03-31T07:37:13.055Z,12.20
2019-03-31T08:07:17.154Z,12.70
2019-03-31T08:37:21.115Z,15.50
2019-03-31T09:07:25.362Z,14.00
2019-03-31T09:37:29.134Z,19.10
2019-03-31T10:07:33.589Z,19.80
2019-03-31T10:37:38.569Z,20.00
2019-03-31T11:07:42.460Z,19.00
2019-03-31T11:37:46.415Z,19.20
2019-03-31T12:07:50.411Z,18.60
2019-03-31T12:37:54.178Z,18.10
2019-03-31T13:07:57.999Z,18.30
2019-03-31T13:38:11.009Z,17.40
2019-03-31T14:08:07.480Z,16.80
2019-03-31T14:38:11.268Z,16.50
2019-03-31T15:08:15.338Z,15.60
2019-03-31T15:38:19.053Z,15.00
2019-03-31T16:08:22.834Z,14.10
2019-03-31T16:38:26.775Z,13.30
2019-03-31T17:08:30.620Z,12.50
2019-03-31T17:38:35.589Z,11.70
2019-03-31T18:08:42.311Z,10.90
2019-03-31T18:38:45.069Z,10.40
2019-03-31T19:08:50.502Z,10.10
2019-03-31T19:38:59.059Z,9.80
2019-03-31T20:09:07.442Z,9.60
2019-03-31T20:39:12.888Z,9.30
2019-03-31T21:09:16.838Z,9.00
2019-03-31T21:39:20.764Z,8.60
2019-03-31T22:09:24.882Z,7.90
2019-03-31T22:39:28.947Z,7.30
2019-03-31T23:09:34.399Z,6.70
2019-03-31T23:39:38.523Z,6.10
